sensor_id;sensor_type;location;lat;lon;timestamp;temperature;humidity
38239;DHT22;24035;48.900;9.188;2022-09-03T00:02:48;17.40;99.90
38239;DHT22;24035;48.900;9.188;2022-09-03T00:06:08;17.40;99.90
38239;DHT22;24035;48.900;9.188;2022-09-03T00:09:26;17.30;99.90
38239;DHT22;24035;48.900;9.188;2022-09-03T00:12:27;17.30;99.90
38239;DHT22;24035;48.900;9.188;2022-09-03T00:15:17;17.30;99.90
38239;DHT22;24035;48.900;9.188;2022-09-03T00:18:11;17.30;99.90
38239;DHT22;24035;48.900;9.188;2022-09-03T00:21:04;17.40;99.90
38239;DHT22;24035;48.900;9.188;2022-09-03T00:23:54;17.40;99.90
38239;DHT22;24035;48.900;9.188;2022-09-03T00:26:46;17.50;99.90
38239;DHT22;24035;48.900;9.188;2022-09-03T00:29:35;17.40;99.90
38239;DHT22;24035;48.900;9.188;2022-09-03T00:35:46;17.40;99.90
38239;DHT22;24035;48.900;9.188;2022-09-03T00:38:34;17.30;99.90
38239;DHT22;24035;48.900;9.188;2022-09-03T00:44:31;17.30;99.90
38239;DHT22;24035;48.900;9.188;2022-09-03T00:47:29;17.30;99.90
38239;DHT22;24035;48.900;9.188;2022-09-03T00:56:34;17.10;99.90
38239;DHT22;24035;48.900;9.188;2022-09-03T00:59:43;17.10;99.90
38239;DHT22;24035;48.900;9.188;2022-09-03T01:02:46;17.10;99.90
38239;DHT22;24035;48.900;9.188;2022-09-03T01:12:21;17.30;99.90
38239;DHT22;24035;48.900;9.188;2022-09-03T01:19:20;17.20;99.90
38239;DHT22;24035;48.900;9.188;2022-09-03T01:30:47;17.00;99.90
38239;DHT22;24035;48.900;9.188;2022-09-03T01:40:00;17.00;99.90
38239;DHT22;24035;48.900;9.188;2022-09-03T01:43:12;17.00;99.90
38239;DHT22;24035;48.900;9.188;2022-09-03T01:46:12;17.00;99.90
38239;DHT22;24035;48.900;9.188;2022-09-03T01:49:18;17.10;99.90
38239;DHT22;24035;48.900;9.188;2022-09-03T01:52:19;17.00;99.90
38239;DHT22;24035;48.900;9.188;2022-09-03T01:55:30;17.00;99.90
38239;DHT22;24035;48.900;9.188;2022-09-03T02:01:28;17.00;99.90
38239;DHT22;24035;48.900;9.188;2022-09-03T02:04:20;17.00;99.90
38239;DHT22;24035;48.900;9.188;2022-09-03T02:07:07;16.90;99.90
38239;DHT22;24035;48.900;9.188;2022-09-03T02:09:53;16.90;99.90
38239;DHT22;24035;48.900;9.188;2022-09-03T02:12:43;16.90;99.90
38239;DHT22;24035;48.900;9.188;2022-09-03T02:15:30;17.10;99.90
38239;DHT22;24035;48.900;9.188;2022-09-03T02:18:24;17.10;99.90
38239;DHT22;24035;48.900;9.188;2022-09-03T02:21:16;17.10;99.90
38239;DHT22;24035;48.900;9.188;2022-09-03T02:24:03;17.10;99.90
38239;DHT22;24035;48.900;9.188;2022-09-03T02:26:49;17.20;99.90
38239;DHT22;24035;48.900;9.188;2022-09-03T02:29:35;17.20;99.90
38239;DHT22;24035;48.900;9.188;2022-09-03T02:32:21;17.30;99.90
38239;DHT22;24035;48.900;9.188;2022-09-03T02:35:07;17.30;99.90
38239;DHT22;24035;48.900;9.188;2022-09-03T02:37:53;17.30;99.90
38239;DHT22;24035;48.900;9.188;2022-09-03T02:40:39;17.30;99.90
38239;DHT22;24035;48.900;9.188;2022-09-03T02:46:40;17.40;99.90
38239;DHT22;24035;48.900;9.188;2022-09-03T02:49:28;17.30;99.90
38239;DHT22;24035;48.900;9.188;2022-09-03T02:52:15;17.30;99.90
38239;DHT22;24035;48.900;9.188;2022-09-03T02:55:01;17.30;99.90
38239;DHT22;24035;48.900;9.188;2022-09-03T02:57:47;17.20;99.90
38239;DHT22;24035;48.900;9.188;2022-09-03T03:00:34;17.20;99.90
38239;DHT22;24035;48.900;9.188;2022-09-03T03:03:20;17.10;99.90
38239;DHT22;24035;48.900;9.188;2022-09-03T03:06:06;17.10;99.90
38239;DHT22;24035;48.900;9.188;2022-09-03T03:08:52;17.10;99.90
38239;DHT22;24035;48.900;9.188;2022-09-03T03:11:42;17.00;99.90
38239;DHT22;24035;48.900;9.188;2022-09-03T03:14:28;17.10;99.90
38239;DHT22;24035;48.900;9.188;2022-09-03T03:17:14;17.10;99.90
38239;DHT22;24035;48.900;9.188;2022-09-03T03:20:00;17.00;99.90
38239;DHT22;24035;48.900;9.188;2022-09-03T03:22:46;17.10;99.90
38239;DHT22;24035;48.900;9.188;2022-09-03T03:25:37;17.10;99.90
38239;DHT22;24035;48.900;9.188;2022-09-03T03:28:23;17.10;99.90
38239;DHT22;24035;48.900;9.188;2022-09-03T03:31:11;17.10;99.90
38239;DHT22;24035;48.900;9.188;2022-09-03T03:34:00;17.10;99.90
38239;DHT22;24035;48.900;9.188;2022-09-03T03:36:46;17.20;99.90
38239;DHT22;24035;48.900;9.188;2022-09-03T03:39:32;17.10;99.90
38239;DHT22;24035;48.900;9.188;2022-09-03T03:42:18;17.00;99.90
38239;DHT22;24035;48.900;9.188;2022-09-03T03:45:05;17.20;99.90
38239;DHT22;24035;48.900;9.188;2022-09-03T03:47:51;17.10;99.90
38239;DHT22;24035;48.900;9.188;2022-09-03T03:50:37;17.20;99.90
38239;DHT22;24035;48.900;9.188;2022-09-03T03:53:23;17.10;99.90
38239;DHT22;24035;48.900;9.188;2022-09-03T03:56:12;17.10;99.90
38239;DHT22;24035;48.900;9.188;2022-09-03T03:58:58;17.10;99.90
38239;DHT22;24035;48.900;9.188;2022-09-03T04:01:44;17.10;99.90
38239;DHT22;24035;48.900;9.188;2022-09-03T04:04:30;17.10;99.90
38239;DHT22;24035;48.900;9.188;2022-09-03T04:07:16;17.10;99.90
38239;DHT22;24035;48.900;9.188;2022-09-03T04:10:02;17.00;99.90
38239;DHT22;24035;48.900;9.188;2022-09-03T04:12:48;17.10;99.90
38239;DHT22;24035;48.900;9.188;2022-09-03T04:15:34;17.10;99.90
38239;DHT22;24035;48.900;9.188;2022-09-03T04:18:21;17.10;99.90
38239;DHT22;24035;48.900;9.188;2022-09-03T04:21:10;17.10;99.90
38239;DHT22;24035;48.900;9.188;2022-09-03T04:23:57;17.10;99.90
38239;DHT22;24035;48.900;9.188;2022-09-03T04:26:43;17.00;99.90
38239;DHT22;24035;48.900;9.188;2022-09-03T04:29:29;17.00;99.90
38239;DHT22;24035;48.900;9.188;2022-09-03T04:32:15;16.90;99.90
38239;DHT22;24035;48.900;9.188;2022-09-03T04:35:21;16.80;99.90
38239;DHT22;24035;48.900;9.188;2022-09-03T04:38:07;16.80;99.90
38239;DHT22;24035;48.900;9.188;2022-09-03T04:40:53;16.80;99.90
38239;DHT22;24035;48.900;9.188;2022-09-03T04:43:39;16.80;99.90
38239;DHT22;24035;48.900;9.188;2022-09-03T04:46:28;16.80;99.90
38239;DHT22;24035;48.900;9.188;2022-09-03T04:49:17;16.90;99.90
38239;DHT22;24035;48.900;9.188;2022-09-03T04:52:04;17.00;99.90
38239;DHT22;24035;48.900;9.188;2022-09-03T04:54:50;17.00;99.90
38239;DHT22;24035;48.900;9.188;2022-09-03T04:57:36;17.10;99.90
38239;DHT22;24035;48.900;9.188;2022-09-03T05:00:22;17.00;99.90
38239;DHT22;24035;48.900;9.188;2022-09-03T05:03:08;17.10;99.90
38239;DHT22;24035;48.900;9.188;2022-09-03T05:05:55;17.00;99.90
38239;DHT22;24035;48.900;9.188;2022-09-03T05:08:41;17.00;99.90
38239;DHT22;24035;48.900;9.188;2022-09-03T05:11:27;17.10;99.90
38239;DHT22;24035;48.900;9.188;2022-09-03T05:14:13;17.10;99.90
38239;DHT22;24035;48.900;9.188;2022-09-03T05:16:59;17.20;99.90
38239;DHT22;24035;48.900;9.188;2022-09-03T05:19:45;17.30;99.90
38239;DHT22;24035;48.900;9.188;2022-09-03T05:22:31;17.30;99.90
38239;DHT22;24035;48.900;9.188;2022-09-03T05:25:17;17.30;99.90
38239;DHT22;24035;48.900;9.188;2022-09-03T05:28:03;17.40;99.90
38239;DHT22;24035;48.900;9.188;2022-09-03T05:31:00;17.40;99.90
38239;DHT22;24035;48.900;9.188;2022-09-03T05:33:49;17.40;99.90
38239;DHT22;24035;48.900;9.188;2022-09-03T05:36:36;17.30;99.90
38239;DHT22;24035;48.900;9.188;2022-09-03T05:39:23;17.30;99.90
38239;DHT22;24035;48.900;9.188;2022-09-03T05:42:09;17.10;99.90
38239;DHT22;24035;48.900;9.188;2022-09-03T05:44:55;17.20;99.90
38239;DHT22;24035;48.900;9.188;2022-09-03T05:47:41;17.20;99.90
38239;DHT22;24035;48.900;9.188;2022-09-03T05:50:27;17.10;99.90
38239;DHT22;24035;48.900;9.188;2022-09-03T05:53:13;17.40;99.90
38239;DHT22;24035;48.900;9.188;2022-09-03T05:56:01;17.40;99.90
38239;DHT22;24035;48.900;9.188;2022-09-03T05:58:49;17.50;99.90
38239;DHT22;24035;48.900;9.188;2022-09-03T06:01:38;17.60;99.90
38239;DHT22;24035;48.900;9.188;2022-09-03T06:04:24;17.70;99.90
38239;DHT22;24035;48.900;9.188;2022-09-03T06:07:10;17.80;99.90
38239;DHT22;24035;48.900;9.188;2022-09-03T06:09:56;17.80;99.90
38239;DHT22;24035;48.900;9.188;2022-09-03T06:12:43;17.80;99.90
38239;DHT22;24035;48.900;9.188;2022-09-03T06:15:30;17.80;99.90
38239;DHT22;24035;48.900;9.188;2022-09-03T06:18:17;18.10;99.90
38239;DHT22;24035;48.900;9.188;2022-09-03T06:21:05;18.30;99.90
38239;DHT22;24035;48.900;9.188;2022-09-03T06:23:53;18.50;99.90
38239;DHT22;24035;48.900;9.188;2022-09-03T06:26:43;18.60;99.90
38239;DHT22;24035;48.900;9.188;2022-09-03T06:29:29;18.70;99.90
38239;DHT22;24035;48.900;9.188;2022-09-03T06:32:15;18.80;99.90
38239;DHT22;24035;48.900;9.188;2022-09-03T06:35:01;18.90;99.90
38239;DHT22;24035;48.900;9.188;2022-09-03T06:37:47;18.90;99.90
38239;DHT22;24035;48.900;9.188;2022-09-03T06:40:33;18.90;99.90
38239;DHT22;24035;48.900;9.188;2022-09-03T06:43:19;19.00;99.90
38239;DHT22;24035;48.900;9.188;2022-09-03T06:46:09;19.10;99.90
38239;DHT22;24035;48.900;9.188;2022-09-03T06:48:55;19.10;99.90
38239;DHT22;24035;48.900;9.188;2022-09-03T06:51:41;19.10;99.90
38239;DHT22;24035;48.900;9.188;2022-09-03T06:54:28;19.20;99.90
38239;DHT22;24035;48.900;9.188;2022-09-03T06:57:14;19.30;99.90
38239;DHT22;24035;48.900;9.188;2022-09-03T07:00:00;19.30;99.90
38239;DHT22;24035;48.900;9.188;2022-09-03T07:02:55;19.30;99.90
38239;DHT22;24035;48.900;9.188;2022-09-03T07:05:43;19.40;99.90
38239;DHT22;24035;48.900;9.188;2022-09-03T07:08:29;19.30;99.90
38239;DHT22;24035;48.900;9.188;2022-09-03T07:11:19;19.40;99.90
38239;DHT22;24035;48.900;9.188;2022-09-03T07:14:07;19.60;99.90
38239;DHT22;24035;48.900;9.188;2022-09-03T07:16:53;19.70;99.90
38239;DHT22;24035;48.900;9.188;2022-09-03T07:19:39;19.90;99.90
38239;DHT22;24035;48.900;9.188;2022-09-03T07:22:25;19.90;99.90
38239;DHT22;24035;48.900;9.188;2022-09-03T07:25:11;20.20;99.90
38239;DHT22;24035;48.900;9.188;2022-09-03T07:27:57;20.50;99.90
38239;DHT22;24035;48.900;9.188;2022-09-03T07:30:42;20.80;99.90
38239;DHT22;24035;48.900;9.188;2022-09-03T07:33:29;21.30;99.90
38239;DHT22;24035;48.900;9.188;2022-09-03T07:36:16;21.30;99.90
38239;DHT22;24035;48.900;9.188;2022-09-03T07:39:02;21.40;99.90
38239;DHT22;24035;48.900;9.188;2022-09-03T07:41:48;21.40;99.90
38239;DHT22;24035;48.900;9.188;2022-09-03T07:44:35;21.30;99.90
38239;DHT22;24035;48.900;9.188;2022-09-03T07:47:21;21.40;99.90
38239;DHT22;24035;48.900;9.188;2022-09-03T07:50:07;21.60;99.90
38239;DHT22;24035;48.900;9.188;2022-09-03T07:52:56;21.80;99.90
38239;DHT22;24035;48.900;9.188;2022-09-03T07:55:46;21.80;99.90
38239;DHT22;24035;48.900;9.188;2022-09-03T07:58:34;21.90;99.90
38239;DHT22;24035;48.900;9.188;2022-09-03T08:01:23;21.80;99.90
38239;DHT22;24035;48.900;9.188;2022-09-03T08:04:09;21.70;99.90
38239;DHT22;24035;48.900;9.188;2022-09-03T08:06:56;21.80;99.90
38239;DHT22;24035;48.900;9.188;2022-09-03T08:09:43;21.90;99.90
38239;DHT22;24035;48.900;9.188;2022-09-03T08:12:30;22.20;99.90
38239;DHT22;24035;48.900;9.188;2022-09-03T08:15:17;22.10;99.90
38239;DHT22;24035;48.900;9.188;2022-09-03T08:18:03;22.40;99.90
38239;DHT22;24035;48.900;9.188;2022-09-03T08:20:49;22.60;99.90
38239;DHT22;24035;48.900;9.188;2022-09-03T08:23:39;22.50;99.90
38239;DHT22;24035;48.900;9.188;2022-09-03T08:26:25;22.30;99.90
38239;DHT22;24035;48.900;9.188;2022-09-03T08:29:11;21.90;99.90
38239;DHT22;24035;48.900;9.188;2022-09-03T08:31:57;21.70;99.90
38239;DHT22;24035;48.900;9.188;2022-09-03T08:34:43;21.70;99.90
38239;DHT22;24035;48.900;9.188;2022-09-03T08:37:28;22.30;99.90
38239;DHT22;24035;48.900;9.188;2022-09-03T08:40:15;23.00;99.90
38239;DHT22;24035;48.900;9.188;2022-09-03T08:43:16;23.50;99.90
38239;DHT22;24035;48.900;9.188;2022-09-03T08:46:03;23.50;99.90
38239;DHT22;24035;48.900;9.188;2022-09-03T08:48:49;23.00;99.90
38239;DHT22;24035;48.900;9.188;2022-09-03T08:51:36;22.20;99.90
38239;DHT22;24035;48.900;9.188;2022-09-03T08:54:28;21.70;99.90
38239;DHT22;24035;48.900;9.188;2022-09-03T08:57:17;21.50;99.90
38239;DHT22;24035;48.900;9.188;2022-09-03T09:00:04;21.50;99.90
38239;DHT22;24035;48.900;9.188;2022-09-03T09:06:10;21.40;99.90
38239;DHT22;24035;48.900;9.188;2022-09-03T09:09:12;21.40;99.90
38239;DHT22;24035;48.900;9.188;2022-09-03T09:15:29;20.90;99.90
38239;DHT22;24035;48.900;9.188;2022-09-03T09:18:55;21.00;99.90
38239;DHT22;24035;48.900;9.188;2022-09-03T09:21:57;21.40;99.90
38239;DHT22;24035;48.900;9.188;2022-09-03T09:24:46;21.40;99.90
38239;DHT22;24035;48.900;9.188;2022-09-03T09:27:32;21.20;99.90
38239;DHT22;24035;48.900;9.188;2022-09-03T09:30:18;21.80;99.90
38239;DHT22;24035;48.900;9.188;2022-09-03T09:33:04;21.80;99.90
38239;DHT22;24035;48.900;9.188;2022-09-03T09:35:51;22.00;99.90
38239;DHT22;24035;48.900;9.188;2022-09-03T09:38:38;22.10;99.90
38239;DHT22;24035;48.900;9.188;2022-09-03T09:41:24;22.20;99.90
38239;DHT22;24035;48.900;9.188;2022-09-03T09:44:18;22.50;99.90
38239;DHT22;24035;48.900;9.188;2022-09-03T09:47:28;22.90;99.90
38239;DHT22;24035;48.900;9.188;2022-09-03T09:50:19;22.50;99.90
38239;DHT22;24035;48.900;9.188;2022-09-03T09:53:08;21.90;99.90
38239;DHT22;24035;48.900;9.188;2022-09-03T09:55:59;22.00;99.90
38239;DHT22;24035;48.900;9.188;2022-09-03T09:58:47;22.60;99.90
38239;DHT22;24035;48.900;9.188;2022-09-03T10:01:36;23.10;99.90
38239;DHT22;24035;48.900;9.188;2022-09-03T10:04:28;23.20;99.90
38239;DHT22;24035;48.900;9.188;2022-09-03T10:07:23;23.00;99.90
38239;DHT22;24035;48.900;9.188;2022-09-03T10:13:12;23.00;99.90
38239;DHT22;24035;48.900;9.188;2022-09-03T10:16:07;22.20;99.90
38239;DHT22;24035;48.900;9.188;2022-09-03T10:19:08;22.10;99.90
38239;DHT22;24035;48.900;9.188;2022-09-03T10:22:09;22.10;99.90
38239;DHT22;24035;48.900;9.188;2022-09-03T10:24:58;22.00;99.90
38239;DHT22;24035;48.900;9.188;2022-09-03T10:27:45;22.70;99.90
38239;DHT22;24035;48.900;9.188;2022-09-03T10:30:37;23.40;99.90
38239;DHT22;24035;48.900;9.188;2022-09-03T10:33:40;23.90;99.90
38239;DHT22;24035;48.900;9.188;2022-09-03T10:36:33;24.00;99.90
38239;DHT22;24035;48.900;9.188;2022-09-03T10:39:36;24.40;99.90
38239;DHT22;24035;48.900;9.188;2022-09-03T10:42:34;24.60;99.90
38239;DHT22;24035;48.900;9.188;2022-09-03T10:45:36;24.70;99.90
38239;DHT22;24035;48.900;9.188;2022-09-03T10:51:34;23.60;99.90
38239;DHT22;24035;48.900;9.188;2022-09-03T10:54:38;23.40;99.90
38239;DHT22;24035;48.900;9.188;2022-09-03T10:57:44;23.20;99.90
38239;DHT22;24035;48.900;9.188;2022-09-03T11:00:33;23.30;99.90
38239;DHT22;24035;48.900;9.188;2022-09-03T11:07:07;23.80;99.90
38239;DHT22;24035;48.900;9.188;2022-09-03T11:13:16;24.20;99.90
38239;DHT22;24035;48.900;9.188;2022-09-03T11:16:12;24.10;99.90
38239;DHT22;24035;48.900;9.188;2022-09-03T11:19:08;24.10;99.90
38239;DHT22;24035;48.900;9.188;2022-09-03T11:21:56;24.20;99.90
38239;DHT22;24035;48.900;9.188;2022-09-03T11:24:47;24.70;99.90
38239;DHT22;24035;48.900;9.188;2022-09-03T11:36:50;25.50;99.90
38239;DHT22;24035;48.900;9.188;2022-09-03T11:39:38;25.70;99.90
38239;DHT22;24035;48.900;9.188;2022-09-03T11:45:21;26.00;99.90
38239;DHT22;24035;48.900;9.188;2022-09-03T11:57:15;26.00;99.90
38239;DHT22;24035;48.900;9.188;2022-09-03T12:00:12;26.00;99.90
38239;DHT22;24035;48.900;9.188;2022-09-03T12:03:02;26.40;99.90
38239;DHT22;24035;48.900;9.188;2022-09-03T12:06:04;26.60;99.90
38239;DHT22;24035;48.900;9.188;2022-09-03T12:18:03;25.80;99.90
38239;DHT22;24035;48.900;9.188;2022-09-03T12:21:06;25.40;99.90
38239;DHT22;24035;48.900;9.188;2022-09-03T12:23:56;24.80;99.90
38239;DHT22;24035;48.900;9.188;2022-09-03T12:26:42;24.50;99.90
38239;DHT22;24035;48.900;9.188;2022-09-03T12:29:29;24.40;99.90
38239;DHT22;24035;48.900;9.188;2022-09-03T12:32:16;24.20;99.90
38239;DHT22;24035;48.900;9.188;2022-09-03T12:35:18;23.90;99.90
38239;DHT22;24035;48.900;9.188;2022-09-03T12:38:04;23.50;99.90
38239;DHT22;24035;48.900;9.188;2022-09-03T12:40:51;23.40;99.90
38239;DHT22;24035;48.900;9.188;2022-09-03T12:43:37;23.30;99.90
38239;DHT22;24035;48.900;9.188;2022-09-03T12:46:27;23.20;99.90
38239;DHT22;24035;48.900;9.188;2022-09-03T12:49:14;22.90;99.90
38239;DHT22;24035;48.900;9.188;2022-09-03T12:52:04;22.80;99.90
38239;DHT22;24035;48.900;9.188;2022-09-03T12:55:00;22.70;99.90
38239;DHT22;24035;48.900;9.188;2022-09-03T12:57:50;22.60;99.90
38239;DHT22;24035;48.900;9.188;2022-09-03T13:00:41;22.40;99.90
38239;DHT22;24035;48.900;9.188;2022-09-03T13:07:02;21.50;1.00
38239;DHT22;24035;48.900;9.188;2022-09-03T13:09:50;20.70;99.90
38239;DHT22;24035;48.900;9.188;2022-09-03T13:12:45;20.30;99.90
38239;DHT22;24035;48.900;9.188;2022-09-03T13:15:32;19.90;1.00
38239;DHT22;24035;48.900;9.188;2022-09-03T13:30:19;19.30;1.00
38239;DHT22;24035;48.900;9.188;2022-09-03T13:33:24;19.40;99.90
38239;DHT22;24035;48.900;9.188;2022-09-03T13:36:19;19.60;99.90
38239;DHT22;24035;48.900;9.188;2022-09-03T13:39:21;19.80;1.00
38239;DHT22;24035;48.900;9.188;2022-09-03T13:42:20;20.10;99.90
38239;DHT22;24035;48.900;9.188;2022-09-03T13:45:34;20.50;1.00
38239;DHT22;24035;48.900;9.188;2022-09-03T13:48:41;20.80;1.00
38239;DHT22;24035;48.900;9.188;2022-09-03T13:51:54;20.90;1.00
38239;DHT22;24035;48.900;9.188;2022-09-03T13:54:45;21.10;1.00
38239;DHT22;24035;48.900;9.188;2022-09-03T13:57:53;21.40;1.00
38239;DHT22;24035;48.900;9.188;2022-09-03T14:01:03;21.70;1.00
38239;DHT22;24035;48.900;9.188;2022-09-03T14:04:00;22.00;99.90
38239;DHT22;24035;48.900;9.188;2022-09-03T14:06:56;22.30;99.90
38239;DHT22;24035;48.900;9.188;2022-09-03T14:10:03;22.30;99.90
38239;DHT22;24035;48.900;9.188;2022-09-03T14:13:09;22.20;99.90
38239;DHT22;24035;48.900;9.188;2022-09-03T14:16:03;22.00;99.90
38239;DHT22;24035;48.900;9.188;2022-09-03T14:18:54;21.70;99.90
38239;DHT22;24035;48.900;9.188;2022-09-03T14:21:51;21.10;1.00
38239;DHT22;24035;48.900;9.188;2022-09-03T14:27:54;20.40;15.70
38239;DHT22;24035;48.900;9.188;2022-09-03T14:37:03;19.70;1.00
38239;DHT22;24035;48.900;9.188;2022-09-03T14:39:54;19.60;1.00
38239;DHT22;24035;48.900;9.188;2022-09-03T14:42:50;19.60;18.40
38239;DHT22;24035;48.900;9.188;2022-09-03T15:00:52;19.70;1.00
38239;DHT22;24035;48.900;9.188;2022-09-03T15:07:11;19.40;1.00
38239;DHT22;24035;48.900;9.188;2022-09-03T15:16:57;19.20;1.00
38239;DHT22;24035;48.900;9.188;2022-09-03T15:20:09;19.20;54.50
38239;DHT22;24035;48.900;9.188;2022-09-03T15:23:16;19.20;1.00
38239;DHT22;24035;48.900;9.188;2022-09-03T15:26:37;19.30;1.00
38239;DHT22;24035;48.900;9.188;2022-09-03T15:41:51;20.70;1.00
38239;DHT22;24035;48.900;9.188;2022-09-03T15:44:51;20.90;1.00
38239;DHT22;24035;48.900;9.188;2022-09-03T16:00:20;21.20;99.90
38239;DHT22;24035;48.900;9.188;2022-09-03T16:03:10;21.40;1.00
38239;DHT22;24035;48.900;9.188;2022-09-03T16:06:04;21.30;1.00
38239;DHT22;24035;48.900;9.188;2022-09-03T16:08:58;21.10;96.60
38239;DHT22;24035;48.900;9.188;2022-09-03T16:11:59;21.30;1.00
38239;DHT22;24035;48.900;9.188;2022-09-03T16:15:01;21.20;1.00
38239;DHT22;24035;48.900;9.188;2022-09-03T16:20:57;21.00;1.00
38239;DHT22;24035;48.900;9.188;2022-09-03T16:27:18;20.50;99.90
38239;DHT22;24035;48.900;9.188;2022-09-03T16:30:11;20.50;1.00
38239;DHT22;24035;48.900;9.188;2022-09-03T16:48:35;20.40;1.00
38239;DHT22;24035;48.900;9.188;2022-09-03T16:51:43;20.50;1.00
38239;DHT22;24035;48.900;9.188;2022-09-03T16:55:03;20.30;1.00
38239;DHT22;24035;48.900;9.188;2022-09-03T16:58:02;20.10;1.00
38239;DHT22;24035;48.900;9.188;2022-09-03T17:17:03;20.10;1.00
38239;DHT22;24035;48.900;9.188;2022-09-03T17:20:11;20.10;1.00
38239;DHT22;24035;48.900;9.188;2022-09-03T17:23:14;20.20;1.00
38239;DHT22;24035;48.900;9.188;2022-09-03T17:29:23;20.30;99.90
38239;DHT22;24035;48.900;9.188;2022-09-03T17:36:11;20.10;1.00
38239;DHT22;24035;48.900;9.188;2022-09-03T17:42:02;19.90;1.00
38239;DHT22;24035;48.900;9.188;2022-09-03T17:45:13;19.90;1.00
38239;DHT22;24035;48.900;9.188;2022-09-03T17:51:03;19.80;1.00
38239;DHT22;24035;48.900;9.188;2022-09-03T18:00:41;19.50;1.00
38239;DHT22;24035;48.900;9.188;2022-09-03T18:06:51;19.30;1.00
38239;DHT22;24035;48.900;9.188;2022-09-03T18:10:07;19.30;1.00
38239;DHT22;24035;48.900;9.188;2022-09-03T18:12:58;19.20;99.90
38239;DHT22;24035;48.900;9.188;2022-09-03T18:15:51;19.00;99.90
38239;DHT22;24035;48.900;9.188;2022-09-03T18:18:45;19.00;1.00
38239;DHT22;24035;48.900;9.188;2022-09-03T18:21:37;19.00;94.50
38239;DHT22;24035;48.900;9.188;2022-09-03T18:24:55;18.80;99.90
38239;DHT22;24035;48.900;9.188;2022-09-03T18:28:05;18.80;1.00
38239;DHT22;24035;48.900;9.188;2022-09-03T18:31:12;18.70;99.90
38239;DHT22;24035;48.900;9.188;2022-09-03T18:34:23;18.60;1.00
38239;DHT22;24035;48.900;9.188;2022-09-03T18:37:29;18.70;1.00
38239;DHT22;24035;48.900;9.188;2022-09-03T18:40:41;18.60;1.00
38239;DHT22;24035;48.900;9.188;2022-09-03T18:43:55;18.50;1.00
38239;DHT22;24035;48.900;9.188;2022-09-03T18:47:11;18.40;1.00
38239;DHT22;24035;48.900;9.188;2022-09-03T18:50:33;18.40;99.90
38239;DHT22;24035;48.900;9.188;2022-09-03T18:54:05;18.30;99.90
38239;DHT22;24035;48.900;9.188;2022-09-03T18:57:22;18.30;1.00
38239;DHT22;24035;48.900;9.188;2022-09-03T19:00:32;18.30;99.90
38239;DHT22;24035;48.900;9.188;2022-09-03T19:03:48;18.20;99.90
38239;DHT22;24035;48.900;9.188;2022-09-03T19:14:58;18.10;1.00
38239;DHT22;24035;48.900;9.188;2022-09-03T19:21:32;18.10;99.90
38239;DHT22;24035;48.900;9.188;2022-09-03T19:24:37;18.20;1.00
38239;DHT22;24035;48.900;9.188;2022-09-03T19:28:19;18.20;1.00
38239;DHT22;24035;48.900;9.188;2022-09-03T19:31:40;18.20;1.00
38239;DHT22;24035;48.900;9.188;2022-09-03T19:41:41;18.20;1.00
38239;DHT22;24035;48.900;9.188;2022-09-03T19:45:07;18.40;99.90
38239;DHT22;24035;48.900;9.188;2022-09-03T19:48:30;18.30;99.90
38239;DHT22;24035;48.900;9.188;2022-09-03T19:52:09;18.20;1.00
38239;DHT22;24035;48.900;9.188;2022-09-03T19:55:20;18.20;1.00
38239;DHT22;24035;48.900;9.188;2022-09-03T19:58:30;18.10;1.00
38239;DHT22;24035;48.900;9.188;2022-09-03T20:01:36;18.20;1.00
38239;DHT22;24035;48.900;9.188;2022-09-03T20:04:50;18.20;1.00
38239;DHT22;24035;48.900;9.188;2022-09-03T20:07:55;18.10;1.00
38239;DHT22;24035;48.900;9.188;2022-09-03T20:11:02;18.10;1.00
38239;DHT22;24035;48.900;9.188;2022-09-03T20:13:58;18.00;1.00
38239;DHT22;24035;48.900;9.188;2022-09-03T20:23:20;18.30;1.00
38239;DHT22;24035;48.900;9.188;2022-09-03T20:26:39;18.30;99.90
38239;DHT22;24035;48.900;9.188;2022-09-03T20:30:05;18.30;99.90
38239;DHT22;24035;48.900;9.188;2022-09-03T20:46:30;18.20;99.90
38239;DHT22;24035;48.900;9.188;2022-09-03T20:49:30;18.20;1.00
38239;DHT22;24035;48.900;9.188;2022-09-03T20:52:29;18.20;99.90
38239;DHT22;24035;48.900;9.188;2022-09-03T20:55:28;18.20;99.90
38239;DHT22;24035;48.900;9.188;2022-09-03T21:04:30;18.00;99.90
38239;DHT22;24035;48.900;9.188;2022-09-03T21:13:40;17.80;1.00
38239;DHT22;24035;48.900;9.188;2022-09-03T21:29:01;17.70;99.90
38239;DHT22;24035;48.900;9.188;2022-09-03T21:32:09;17.70;1.00
38239;DHT22;24035;48.900;9.188;2022-09-03T21:38:04;17.40;1.00
38239;DHT22;24035;48.900;9.188;2022-09-03T21:41:06;17.30;1.00
38239;DHT22;24035;48.900;9.188;2022-09-03T21:44:10;17.30;99.90
38239;DHT22;24035;48.900;9.188;2022-09-03T21:47:05;17.20;1.00
38239;DHT22;24035;48.900;9.188;2022-09-03T21:50:10;17.20;1.00
38239;DHT22;24035;48.900;9.188;2022-09-03T21:53:24;17.20;1.00
38239;DHT22;24035;48.900;9.188;2022-09-03T22:01:41;17.50;1.00
38239;DHT22;24035;48.900;9.188;2022-09-03T22:04:07;17.50;1.00
38239;DHT22;24035;48.900;9.188;2022-09-03T22:07:02;17.60;1.00
38239;DHT22;24035;48.900;9.188;2022-09-03T22:15:59;17.70;99.90
38239;DHT22;24035;48.900;9.188;2022-09-03T22:18:46;17.60;99.90
38239;DHT22;24035;48.900;9.188;2022-09-03T22:21:47;17.70;99.90
38239;DHT22;24035;48.900;9.188;2022-09-03T22:27:49;17.80;99.90
38239;DHT22;24035;48.900;9.188;2022-09-03T22:30:49;17.70;99.90
38239;DHT22;24035;48.900;9.188;2022-09-03T22:33:50;17.70;1.00
38239;DHT22;24035;48.900;9.188;2022-09-03T22:36:49;17.60;1.00
38239;DHT22;24035;48.900;9.188;2022-09-03T22:39:40;17.50;1.00
38239;DHT22;24035;48.900;9.188;2022-09-03T22:43:07;17.40;99.90
38239;DHT22;24035;48.900;9.188;2022-09-03T22:46:13;17.30;1.00
38239;DHT22;24035;48.900;9.188;2022-09-03T22:52:08;17.20;1.00
38239;DHT22;24035;48.900;9.188;2022-09-03T22:55:06;17.10;1.00
38239;DHT22;24035;48.900;9.188;2022-09-03T22:58:17;17.00;98.60
38239;DHT22;24035;48.900;9.188;2022-09-03T23:01:23;17.00;99.90
38239;DHT22;24035;48.900;9.188;2022-09-03T23:04:37;17.10;1.00
38239;DHT22;24035;48.900;9.188;2022-09-03T23:13:48;16.90;1.00
38239;DHT22;24035;48.900;9.188;2022-09-03T23:22:32;16.80;99.90
38239;DHT22;24035;48.900;9.188;2022-09-03T23:25:21;16.80;99.90
38239;DHT22;24035;48.900;9.188;2022-09-03T23:28:32;16.70;99.90
38239;DHT22;24035;48.900;9.188;2022-09-03T23:31:23;16.60;99.90
38239;DHT22;24035;48.900;9.188;2022-09-03T23:34:10;16.60;99.90
38239;DHT22;24035;48.900;9.188;2022-09-03T23:46:44;16.30;1.00
38239;DHT22;24035;48.900;9.188;2022-09-03T23:53:18;16.30;1.00
